Time;durP1;ratioP1;P1;durP2;ratioP2;P2;SDS_P1;SDS_P2;PMS_P1;PMS_P2;Temp;Humidity;BMP_temperature;BMP_pressure;BME280_temperature;BME280_humidity;BME280_pressure;Samples;Min_cycle;Max_cycle;Signal;HPM_P1;HPM_P2
2021/09/06 00:00:23;;;;;;;28.58;19.95;;;;;;;15.38;100.00;100756.59;5018519;28;20046;-71
2021/09/06 00:02:50;;;;;;;30.50;19.58;;;;;;;15.38;100.00;100756.59;5020244;28;20056;-70
2021/09/06 00:05:17;;;;;;;24.92;19.25;;;;;;;15.34;100.00;100764.03;5019594;28;20437;-72
2021/09/06 00:07:45;;;;;;;30.42;20.30;;;;;;;15.32;100.00;100756.06;5016346;28;20045;-72
2021/09/06 00:10:29;;;;;;;26.40;19.48;;;;;;;15.29;100.00;100753.59;5015696;28;20125;-71
2021/09/06 00:12:56;;;;;;;31.08;21.05;;;;;;;15.27;100.00;100757.38;5015758;28;20052;-71
2021/09/06 00:15:23;;;;;;;28.27;20.20;;;;;;;15.24;100.00;100755.75;5014359;28;20070;-72
2021/09/06 00:17:50;;;;;;;31.98;20.30;;;;;;;15.25;100.00;100762.84;5015560;28;20496;-71
2021/09/06 00:20:18;;;;;;;27.95;20.38;;;;;;;15.17;100.00;100744.59;5015683;28;20133;-70
2021/09/06 00:22:45;;;;;;;28.88;20.73;;;;;;;15.19;100.00;100755.22;5014967;28;20363;-71
2021/09/06 00:25:12;;;;;;;30.33;20.35;;;;;;;15.13;100.00;100743.06;5014409;28;20437;-72
2021/09/06 00:27:39;;;;;;;28.90;20.60;;;;;;;15.12;100.00;100752.13;5015397;28;20116;-71
2021/09/06 00:30:06;;;;;;;27.15;21.02;;;;;;;15.07;100.00;100747.06;5030762;28;20161;-73
2021/09/06 00:32:33;;;;;;;30.15;19.88;;;;;;;14.88;100.00;100711.72;5015456;28;20077;-71
2021/09/06 00:35:00;;;;;;;34.92;21.20;;;;;;;15.00;100.00;100748.47;5015391;28;20050;-73
2021/09/06 00:37:28;;;;;;;30.00;21.20;;;;;;;14.99;100.00;100745.88;5015143;28;20335;-72
2021/09/06 00:39:56;;;;;;;31.17;21.05;;;;;;;14.94;100.00;100741.69;5030483;28;20053;-72
2021/09/06 00:42:23;;;;;;;30.05;21.42;;;;;;;14.97;100.00;100746.00;4997603;28;20050;-72
2021/09/06 00:44:49;;;;;;;30.15;21.13;;;;;;;14.98;100.00;100749.53;4997795;28;20080;-73
2021/09/06 00:47:16;;;;;;;29.85;20.75;;;;;;;14.94;100.00;100747.06;5013954;28;20080;-70
2021/09/06 00:49:43;;;;;;;28.02;21.20;;;;;;;14.92;100.00;100742.75;5014998;28;20506;-72
2021/09/06 00:52:10;;;;;;;36.33;21.45;;;;;;;14.88;100.00;100743.97;5014114;28;20045;-70
2021/09/06 00:54:37;;;;;;;30.63;21.02;;;;;;;14.91;100.00;100743.72;5015259;28;20336;-70
2021/09/06 00:57:04;;;;;;;26.83;20.27;;;;;;;14.82;100.00;100744.38;5030258;28;20042;-70
2021/09/06 00:59:32;;;;;;;27.65;19.80;;;;;;;14.83;100.00;100746.97;5013847;28;20103;-72
2021/09/06 01:01:59;;;;;;;27.88;21.65;;;;;;;14.83;100.00;100748.78;5015152;28;20049;-71
2021/09/06 01:04:28;;;;;;;29.58;20.63;;;;;;;14.79;100.00;100748.13;4982316;28;20328;-73
2021/09/06 01:07:13;;;;;;;32.45;21.65;;;;;;;14.78;100.00;100754.47;5000122;28;20134;-73
2021/09/06 01:10:10;;;;;;;30.48;21.60;;;;;;;14.67;100.00;100736.41;5008501;28;20058;-71
2021/09/06 01:12:59;;;;;;;35.92;23.08;;;;;;;14.75;100.00;100742.13;5030086;28;20057;-72
2021/09/06 01:15:31;;;;;;;31.55;22.35;;;;;;;14.72;100.00;100744.13;5013942;28;20054;-71
2021/09/06 01:17:59;;;;;;;32.90;22.30;;;;;;;14.69;100.00;100742.50;5017684;28;20050;-73
2021/09/06 01:20:29;;;;;;;32.92;21.52;;;;;;;14.67;100.00;100745.28;5034093;28;20100;-72
2021/09/06 01:22:58;;;;;;;32.95;21.88;;;;;;;14.64;100.00;100740.16;5017421;28;20164;-74
2021/09/06 01:25:50;;;;;;;28.73;21.08;;;;;;;14.64;100.00;100747.34;5017585;28;20046;-73
2021/09/06 01:28:17;;;;;;;29.10;20.50;;;;;;;14.63;100.00;100748.31;5033957;28;20038;-73
2021/09/06 01:30:45;;;;;;;29.95;21.75;;;;;;;14.62;100.00;100744.78;5019023;28;20064;-72
2021/09/06 01:33:12;;;;;;;36.22;22.00;;;;;;;14.56;100.00;100755.06;5017268;28;20061;-70
2021/09/06 01:35:39;;;;;;;31.05;21.52;;;;;;;14.49;100.00;100760.84;5017031;28;20133;-71
2021/09/06 01:38:06;;;;;;;28.95;20.67;;;;;;;14.47;100.00;100756.53;5018414;28;20105;-71
2021/09/06 01:40:33;;;;;;;33.05;22.80;;;;;;;14.46;100.00;100754.84;5033759;28;20119;-73
2021/09/06 01:43:01;;;;;;;34.17;22.90;;;;;;;14.46;100.00;100761.06;5018341;28;20354;-73
2021/09/06 01:45:28;;;;;;;31.35;22.13;;;;;;;14.42;100.00;100756.88;5017096;28;20336;-71
2021/09/06 01:47:55;;;;;;;31.25;21.27;;;;;;;14.41;100.00;100747.09;5017183;28;20066;-71
2021/09/06 01:50:24;;;;;;;30.58;21.00;;;;;;;14.50;100.00;100759.03;5017130;28;20046;-71
2021/09/06 01:52:54;;;;;;;30.05;22.35;;;;;;;14.44;100.00;100762.97;5018071;28;20057;-73
2021/09/06 01:55:22;;;;;;;32.78;23.83;;;;;;;14.40;100.00;100761.50;5017043;28;20049;-72
2021/09/06 01:57:55;;;;;;;34.47;24.90;;;;;;;14.39;100.00;100759.78;5017166;28;20046;-71
2021/09/06 02:00:22;;;;;;;32.42;21.70;;;;;;;14.39;100.00;100765.16;5000713;28;20057;-71
2021/09/06 02:02:50;;;;;;;32.17;22.60;;;;;;;14.33;100.00;100760.19;5016922;28;20414;-72
2021/09/06 02:05:26;;;;;;;36.45;22.75;;;;;;;14.23;100.00;100746.53;5016867;28;20453;-72
2021/09/06 02:07:53;;;;;;;33.72;22.50;;;;;;;14.25;100.00;100756.19;5000546;28;20455;-72
2021/09/06 02:10:23;;;;;;;34.40;23.50;;;;;;;14.28;100.00;100759.63;5016799;28;20038;-73
2021/09/06 02:12:53;;;;;;;37.38;22.65;;;;;;;14.24;100.00;100769.72;5016703;28;20061;-72
2021/09/06 02:15:21;;;;;;;36.95;23.90;;;;;;;14.23;100.00;100763.47;5017673;28;20042;-72
2021/09/06 02:17:48;;;;;;;29.20;22.05;;;;;;;14.24;100.00;100767.03;5017391;28;20041;-73
2021/09/06 02:20:16;;;;;;;34.65;22.33;;;;;;;14.22;100.00;100753.69;5016855;28;20100;-71
2021/09/06 02:22:43;;;;;;;33.33;22.52;;;;;;;14.16;100.00;100751.41;5015831;28;20489;-71
2021/09/06 02:25:11;;;;;;;32.00;22.90;;;;;;;14.21;100.00;100765.41;4999399;28;20057;-73
2021/09/06 02:27:39;;;;;;;33.67;22.17;;;;;;;14.17;100.00;100755.81;4999084;28;20046;-70
2021/09/06 02:30:17;;;;;;;31.92;22.27;;;;;;;14.15;100.00;100757.75;5015169;28;20077;-71
2021/09/06 02:32:44;;;;;;;30.10;22.20;;;;;;;14.10;100.00;100750.03;5015208;28;20053;-71
2021/09/06 02:35:29;;;;;;;33.65;23.13;;;;;;;14.15;100.00;100746.19;5016668;28;20461;-72
2021/09/06 02:37:56;;;;;;;34.88;23.40;;;;;;;14.04;100.00;100736.13;5015045;28;20049;-73
2021/09/06 02:40:24;;;;;;;35.63;23.65;;;;;;;14.08;100.00;100748.41;5015193;28;20351;-71
2021/09/06 02:42:51;;;;;;;34.40;23.30;;;;;;;14.07;100.00;100752.91;5031431;28;20423;-71
2021/09/06 02:45:18;;;;;;;33.85;22.55;;;;;;;13.96;100.00;100745.56;5015001;28;20054;-72
2021/09/06 02:47:50;;;;;;;30.42;21.98;;;;;;;14.06;100.00;100750.31;5014945;28;20107;-72
2021/09/06 02:50:17;;;;;;;33.38;24.30;;;;;;;14.04;100.00;100747.75;5014805;28;20469;-71
2021/09/06 02:52:47;;;;;;;37.15;23.77;;;;;;;14.00;100.00;100746.22;5014707;28;20053;-73
2021/09/06 02:55:16;;;;;;;33.60;24.08;;;;;;;13.98;100.00;100743.66;5014789;28;20119;-71
2021/09/06 02:57:46;;;;;;;34.67;24.00;;;;;;;13.99;100.00;100749.84;5014586;28;20133;-70
2021/09/06 03:00:13;;;;;;;36.15;24.90;;;;;;;14.01;100.00;100747.09;5014699;28;20080;-69
2021/09/06 03:02:42;;;;;;;35.20;23.88;;;;;;;13.97;100.00;100749.09;5014715;28;20100;-71
2021/09/06 03:05:09;;;;;;;38.42;24.13;;;;;;;13.97;100.00;100743.75;5014519;28;20049;-73
2021/09/06 03:07:42;;;;;;;35.00;24.75;;;;;;;13.97;100.00;100749.97;5014713;28;20118;-73
2021/09/06 03:10:10;;;;;;;37.03;26.08;;;;;;;13.95;100.00;100743.84;5014555;28;20050;-72
2021/09/06 03:12:37;;;;;;;40.97;26.70;;;;;;;13.86;100.00;100739.09;5014792;28;20133;-73
2021/09/06 03:15:05;;;;;;;40.25;26.65;;;;;;;13.94;100.00;100752.84;5030922;28;20463;-73
2021/09/06 03:17:33;;;;;;;38.17;26.42;;;;;;;13.94;100.00;100752.84;5015510;28;20431;-73
2021/09/06 03:20:02;;;;;;;38.97;26.98;;;;;;;13.95;100.00;100754.56;5014375;28;20054;-71
2021/09/06 03:22:32;;;;;;;40.38;26.33;;;;;;;13.94;100.00;100752.84;4974289;28;1159675;-72
2021/09/06 03:25:00;;;;;;;37.92;26.25;;;;;;;13.92;100.00;100752.09;5015146;28;20053;-72
2021/09/06 03:27:30;;;;;;;37.40;25.70;;;;;;;13.97;100.00;100749.97;5015165;28;20228;-70
2021/09/06 03:30:01;;;;;;;39.88;26.27;;;;;;;13.91;100.00;100746.81;4999583;28;20046;-73
2021/09/06 03:32:32;;;;;;;34.65;25.63;;;;;;;13.90;100.00;100748.63;4995683;28;20097;-73
2021/09/06 03:34:59;;;;;;;40.35;26.15;;;;;;;13.83;100.00;100741.94;4979457;28;20115;-71
2021/09/06 03:37:27;;;;;;;38.42;26.95;;;;;;;13.84;100.00;100754.44;4995419;28;20065;-71
2021/09/06 03:39:54;;;;;;;36.45;25.92;;;;;;;13.83;100.00;100753.56;4994951;28;20100;-71
2021/09/06 03:42:22;;;;;;;35.13;25.77;;;;;;;13.79;100.00;100751.19;4995285;28;20050;-70
2021/09/06 03:44:49;;;;;;;39.35;26.42;;;;;;;13.81;100.00;100751.94;4997058;28;20046;-73
2021/09/06 03:47:16;;;;;;;38.20;26.45;;;;;;;13.80;100.00;100748.41;5013808;28;20049;-71
2021/09/06 03:49:43;;;;;;;39.50;26.65;;;;;;;13.80;100.00;100753.78;5016246;28;20081;-71
2021/09/06 03:52:10;;;;;;;39.65;26.40;;;;;;;13.81;100.00;100751.94;5015503;28;20057;-73
2021/09/06 03:54:37;;;;;;;36.40;25.30;;;;;;;13.75;100.00;100758.56;5017453;28;20069;-72
2021/09/06 03:57:07;;;;;;;38.28;26.15;;;;;;;13.69;100.00;100757.13;5015653;28;20057;-71
2021/09/06 03:59:35;;;;;;;44.20;26.00;;;;;;;13.75;100.00;100771.13;5014950;28;20380;-73
2021/09/06 04:02:05;;;;;;;38.17;24.90;;;;;;;13.70;100.00;100766.03;5015197;28;20069;-72
2021/09/06 04:04:33;;;;;;;41.28;25.85;;;;;;;13.75;100.00;100768.44;5014626;28;20450;-72
2021/09/06 04:07:03;;;;;;;31.63;23.35;;;;;;;13.69;100.00;100762.50;5014249;28;20054;-73
2021/09/06 04:09:37;;;;;;;33.15;23.50;;;;;;;13.69;100.00;100772.38;5014244;28;20052;-72
2021/09/06 04:12:04;;;;;;;33.90;23.58;;;;;;;13.67;100.00;100764.44;5012690;28;20100;-72
2021/09/06 04:14:34;;;;;;;34.70;23.98;;;;;;;13.62;100.00;100768.38;5014384;28;20049;-72
2021/09/06 04:17:03;;;;;;;33.92;23.40;;;;;;;13.63;100.00;100764.72;5014580;28;20100;-71
2021/09/06 04:19:37;;;;;;;40.47;23.70;;;;;;;13.58;100.00;100773.91;4983677;28;20048;-70
2021/09/06 04:22:05;;;;;;;33.30;23.30;;;;;;;13.56;100.00;100772.28;5013730;28;20586;-72
2021/09/06 04:24:33;;;;;;;32.90;22.95;;;;;;;13.39;100.00;100755.44;5011439;28;20359;-70
2021/09/06 04:27:01;;;;;;;33.92;23.90;;;;;;;13.38;100.00;100764.44;5015151;28;20120;-73
2021/09/06 04:29:28;;;;;;;32.85;23.30;;;;;;;13.46;100.00;100773.84;5015069;28;20350;-72
2021/09/06 04:31:57;;;;;;;31.88;22.77;;;;;;;13.41;100.00;100776.78;4996606;28;20137;-72
2021/09/06 04:34:24;;;;;;;29.52;21.60;;;;;;;13.37;100.00;100775.25;5015490;28;20121;-72
2021/09/06 04:36:51;;;;;;;34.30;23.83;;;;;;;13.36;100.00;100782.44;5031075;28;20038;-73
2021/09/06 04:39:18;;;;;;;33.20;22.48;;;;;;;13.38;100.00;100785.88;5013913;28;20142;-72
2021/09/06 04:41:46;;;;;;;33.53;22.25;;;;;;;13.35;100.00;100787.91;5009623;28;20061;-72
2021/09/06 04:44:16;;;;;;;30.38;21.92;;;;;;;13.32;100.00;100788.94;4995523;28;20777;-71
2021/09/06 04:46:46;;;;;;;30.95;22.55;;;;;;;13.25;100.00;100772.38;5013967;28;20056;-72
2021/09/06 04:49:16;;;;;;;32.88;22.05;;;;;;;13.33;100.00;100792.50;5031201;28;20054;-72
2021/09/06 04:51:43;;;;;;;30.65;22.80;;;;;;;13.28;100.00;100784.72;5045751;28;20053;-73
2021/09/06 04:54:14;;;;;;;32.45;22.08;;;;;;;13.29;100.00;100783.81;5013848;28;20363;-71
2021/09/06 04:56:43;;;;;;;31.98;22.45;;;;;;;13.28;100.00;100790.09;5014052;28;20061;-71
2021/09/06 04:59:11;;;;;;;33.38;22.90;;;;;;;13.27;100.00;100789.25;5013402;28;20050;-73
2021/09/06 05:01:42;;;;;;;34.33;22.40;;;;;;;13.21;100.00;100788.75;5010420;28;20050;-72
2021/09/06 05:04:09;;;;;;;33.90;24.15;;;;;;;13.21;100.00;100788.75;4994432;28;20387;-72
2021/09/06 05:06:36;;;;;;;37.03;25.05;;;;;;;13.05;100.00;100773.63;4995295;28;20070;-71
2021/09/06 05:09:03;;;;;;;41.05;24.25;;;;;;;13.11;100.00;100789.34;4994255;28;20554;-72
2021/09/06 05:11:32;;;;;;;36.90;25.27;;;;;;;13.17;100.00;100802.34;4994302;28;20042;-71
2021/09/06 05:14:00;;;;;;;41.30;25.60;;;;;;;13.13;100.00;100800.81;5012690;28;20366;-72
2021/09/06 05:16:27;;;;;;;41.58;26.15;;;;;;;13.10;100.00;100801.00;5018031;28;20054;-71
2021/09/06 05:18:54;;;;;;;39.50;26.00;;;;;;;13.10;100.00;100798.34;5015478;28;20053;-72
2021/09/06 05:21:21;;;;;;;39.85;25.67;;;;;;;13.16;100.00;100806.00;4999833;28;20049;-72
2021/09/06 05:23:49;;;;;;;38.22;25.58;;;;;;;13.15;100.00;100806.97;5015542;28;20116;-73
2021/09/06 05:26:17;;;;;;;36.72;24.95;;;;;;;13.18;100.00;100805.88;5015407;28;20132;-72
2021/09/06 05:28:45;;;;;;;37.33;26.10;;;;;;;13.27;100.00;100809.81;5015721;28;20077;-74
2021/09/06 05:31:14;;;;;;;35.47;26.02;;;;;;;13.24;100.00;100807.34;5015930;28;20049;-72
2021/09/06 05:33:43;;;;;;;37.17;24.33;;;;;;;13.27;100.00;100808.00;5014494;28;20045;-73
2021/09/06 05:36:13;;;;;;;39.90;26.45;;;;;;;13.32;100.00;100807.72;5014881;28;20508;-73
2021/09/06 05:38:41;;;;;;;38.83;25.42;;;;;;;13.25;100.00;100812.59;5015452;28;20069;-73
2021/09/06 05:41:35;;;;;;;38.95;25.10;;;;;;;13.31;100.00;100809.53;5029948;28;20050;-74
2021/09/06 05:44:05;;;;;;;34.35;25.27;;;;;;;13.33;100.00;100809.44;5013738;28;20056;-75
2021/09/06 05:46:32;;;;;;;45.03;26.90;;;;;;;13.40;100.00;100813.47;5007786;28;20046;-72
2021/09/06 05:49:01;;;;;;;40.92;26.80;;;;;;;13.42;100.00;100818.72;5012786;28;20054;-73
2021/09/06 05:51:31;;;;;;;38.22;26.27;;;;;;;13.40;100.00;100805.41;5012149;28;20339;-72
2021/09/06 05:54:02;;;;;;;45.08;28.10;;;;;;;13.47;100.00;100811.31;5012610;28;20054;-75
2021/09/06 05:56:29;;;;;;;41.03;28.08;;;;;;;13.53;100.00;100815.41;5012839;28;20057;-73
2021/09/06 05:58:58;;;;;;;43.63;27.17;;;;;;;13.55;100.00;100819.72;5012948;28;20046;-74
2021/09/06 06:01:27;;;;;;;42.92;28.13;;;;;;;13.62;100.00;100816.66;5014667;28;20054;-73
2021/09/06 06:03:56;;;;;;;43.42;28.58;;;;;;;13.66;100.00;100810.13;5033071;28;20053;-74
2021/09/06 06:06:32;;;;;;;48.35;30.33;;;;;;;13.71;100.00;100814.25;5017949;28;20034;-72
2021/09/06 06:09:01;;;;;;;41.20;28.80;;;;;;;13.75;100.00;100819.41;5014357;28;20401;-71
2021/09/06 06:11:28;;;;;;;44.35;29.40;;;;;;;13.77;100.00;100818.34;5015695;28;20049;-72
2021/09/06 06:13:55;;;;;;;45.15;28.90;;;;;;;13.77;100.00;100820.19;5016978;28;20045;-74
2021/09/06 06:16:23;;;;;;;48.72;30.08;;;;;;;13.86;100.00;100822.25;5015342;28;20382;-71
2021/09/06 06:18:52;;;;;;;50.17;29.88;;;;;;;13.96;100.00;100825.22;5013981;28;20085;-73
2021/09/06 06:21:22;;;;;;;54.75;31.33;;;;;;;13.96;100.00;100823.38;5014128;28;20108;-74
2021/09/06 06:23:59;;;;;;;43.45;29.25;;;;;;;14.03;100.00;100822.97;5014413;28;20064;-72
2021/09/06 06:26:49;;;;;;;45.83;29.52;;;;;;;14.09;100.00;100833.31;5015563;28;20137;-73
2021/09/06 06:29:16;;;;;;;48.28;29.70;;;;;;;14.15;100.00;100840.13;5014769;28;20046;-72
2021/09/06 06:31:44;;;;;;;47.05;30.48;;;;;;;14.22;100.00;100839.63;5015433;28;20100;-72
2021/09/06 06:34:12;;;;;;;48.53;30.38;;;;;;;14.30;100.00;100846.28;5015624;28;20137;-74
2021/09/06 06:36:39;;;;;;;53.28;31.00;;;;;;;14.32;100.00;100834.50;5016101;28;20058;-73
2021/09/06 06:39:17;;;;;;;50.47;32.22;;;;;;;14.45;100.00;100845.31;5016094;28;20042;-74
2021/09/06 06:41:47;;;;;;;55.60;33.05;;;;;;;14.58;100.00;100850.72;5016321;28;20336;-74
2021/09/06 06:44:14;;;;;;;50.17;32.42;;;;;;;14.62;100.00;100851.34;5015948;28;20060;-74
2021/09/06 06:46:40;;;;;;;53.50;31.30;;;;;;;14.66;100.00;100848.34;5016829;28;20050;-74
2021/09/06 06:49:08;;;;;;;51.83;32.35;;;;;;;14.70;100.00;100851.69;5015769;28;20050;-74
2021/09/06 06:51:35;;;;;;;54.35;33.33;;;;;;;14.75;100.00;100860.34;5016071;28;20057;-73
2021/09/06 06:54:03;;;;;;;54.00;35.38;;;;;;;14.82;100.00;100855.41;5048942;28;20142;-73
2021/09/06 06:56:34;;;;;;;59.90;35.20;;;;;;;14.88;100.00;100862.22;5031584;28;20057;-74
2021/09/06 06:59:06;;;;;;;58.78;36.72;;;;;;;15.19;100.00;100857.38;5048128;28;20133;-76
2021/09/06 07:01:33;;;;;;;61.47;37.55;;;;;;;15.37;100.00;100857.97;5031832;28;20321;-74
2021/09/06 07:04:01;;;;;;;52.92;33.17;;;;;;;15.54;100.00;100870.22;5012001;28;20038;-73
2021/09/06 07:06:31;;;;;;;49.60;30.60;;;;;;;15.56;100.00;100878.16;4995868;28;20078;-70
2021/09/06 07:08:59;;;;;;;45.50;31.63;;;;;;;15.51;100.00;100881.19;4995700;28;20082;-71
2021/09/06 07:11:27;;;;;;;46.28;30.45;;;;;;;15.39;100.00;100863.22;5001604;28;20049;-70
2021/09/06 07:13:58;;;;;;;51.83;32.88;;;;;;;15.43;100.00;100876.31;5030865;28;20157;-71
2021/09/06 07:16:25;;;;;;;57.30;35.42;;;;;;;15.45;100.00;100882.47;5048624;28;20076;-69
2021/09/06 07:18:52;;;;;;;55.95;34.33;;;;;;;15.49;100.00;100883.13;5015007;28;20129;-71
2021/09/06 07:21:19;;;;;;;53.35;33.80;;;;;;;15.50;100.00;100890.22;5047840;28;20052;-70
2021/09/06 07:23:47;;;;;;;55.42;34.22;;;;;;;15.55;100.00;100896.16;5014826;28;20050;-71
2021/09/06 07:26:15;;;;;;;50.72;32.65;;;;;;;15.70;100.00;100890.66;5031606;28;20140;-72
2021/09/06 07:28:42;;;;;;;58.88;34.63;;;;;;;15.80;100.00;100902.47;5014304;28;20523;-71
2021/09/06 07:31:10;;;;;;;53.20;34.35;;;;;;;15.75;100.00;100904.66;5015352;28;20038;-73
2021/09/06 07:33:39;;;;;;;50.53;33.47;;;;;;;15.76;100.00;100900.97;5030327;28;20168;-72
2021/09/06 07:36:07;;;;;;;49.85;33.65;;;;;;;15.88;100.00;100910.88;5030325;28;20057;-72
2021/09/06 07:38:34;;;;;;;50.85;33.30;;;;;;;15.96;100.00;100920.25;5047009;28;20080;-72
2021/09/06 07:41:01;;;;;;;48.88;32.95;;;;;;;16.00;100.00;100921.75;5015249;28;20049;-72
2021/09/06 07:43:28;;;;;;;46.92;32.90;;;;;;;16.01;100.00;100915.38;5011504;28;20046;-72
2021/09/06 07:45:55;;;;;;;45.78;31.15;;;;;;;16.04;100.00;100925.94;4997614;28;20050;-72
2021/09/06 07:48:22;;;;;;;49.95;32.50;;;;;;;16.05;100.00;100921.41;5013946;28;20080;-72
2021/09/06 07:50:53;;;;;;;46.03;30.77;;;;;;;16.19;100.00;100925.81;4998444;28;20056;-72
2021/09/06 07:53:22;;;;;;;45.85;31.35;;;;;;;16.18;100.00;100927.63;5014399;28;20391;-75
2021/09/06 07:55:50;;;;;;;48.27;30.73;;;;;;;16.27;100.00;100931.50;5010587;28;20076;-74
2021/09/06 07:58:21;;;;;;;48.88;32.17;;;;;;;16.33;100.00;100935.59;5012123;28;20073;-73
2021/09/06 08:00:48;;;;;;;55.80;31.35;;;;;;;16.33;100.00;100928.34;5012318;28;20304;-74
2021/09/06 08:03:15;;;;;;;47.45;31.20;;;;;;;16.38;100.00;100930.69;5005041;28;20110;-73
2021/09/06 08:05:46;;;;;;;48.30;32.67;;;;;;;16.45;100.00;100933.81;4995298;28;20069;-72
2021/09/06 08:08:14;;;;;;;47.83;31.88;;;;;;;16.52;100.00;100933.22;5008470;28;20049;-73
2021/09/06 08:10:43;;;;;;;46.55;30.85;;;;;;;16.61;100.00;100936.25;5011191;28;20048;-72
2021/09/06 08:13:15;;;;;;;49.03;31.10;;;;;;;16.74;100.00;100944.25;5023852;28;20050;-71
2021/09/06 08:15:42;;;;;;;45.17;30.38;;;;;;;16.77;99.44;100939.50;5003952;28;20060;-70
2021/09/06 08:18:10;;;;;;;42.45;30.48;;;;;;;16.86;99.62;100943.34;5007767;28;20046;-70
2021/09/06 08:20:44;;;;;;;50.25;31.52;;;;;;;16.94;98.27;100946.31;5029810;28;20144;-70
2021/09/06 08:23:11;;;;;;;55.72;30.70;;;;;;;17.02;97.43;100959.25;5012663;28;20064;-73
2021/09/06 08:25:39;;;;;;;49.40;32.13;;;;;;;17.16;96.44;100955.50;5019407;28;20056;-70
2021/09/06 08:28:08;;;;;;;44.67;29.92;;;;;;;17.21;95.99;100953.31;5030499;28;20053;-70
2021/09/06 08:30:38;;;;;;;43.57;29.73;;;;;;;17.39;95.06;100947.50;5030374;28;20053;-70
2021/09/06 08:33:05;;;;;;;43.53;30.30;;;;;;;17.58;93.62;100954.13;5000703;28;20056;-71
2021/09/06 08:35:33;;;;;;;48.45;30.33;;;;;;;17.67;92.71;100950.72;5010744;28;20053;-71
2021/09/06 08:38:02;;;;;;;43.50;30.60;;;;;;;17.82;91.75;100950.50;5025386;28;20423;-71
2021/09/06 08:40:29;;;;;;;47.30;29.02;;;;;;;17.91;90.44;100953.31;5002017;28;20050;-72
2021/09/06 08:42:58;;;;;;;44.42;29.60;;;;;;;18.03;89.08;100942.53;5022016;28;20050;-71
2021/09/06 08:45:26;;;;;;;42.17;29.15;;;;;;;18.11;88.76;100948.19;5032215;28;20108;-75
2021/09/06 08:47:53;;;;;;;42.72;27.50;;;;;;;18.17;87.99;100945.00;5013414;28;20038;-70
2021/09/06 08:50:21;;;;;;;44.40;27.60;;;;;;;18.34;88.16;100958.13;5013288;28;20054;-69
2021/09/06 08:52:49;;;;;;;46.15;28.30;;;;;;;18.55;87.72;100964.47;5046298;28;20056;-70
2021/09/06 08:55:16;;;;;;;38.17;26.23;;;;;;;18.68;87.86;100949.94;5013238;28;20088;-70
2021/09/06 08:57:46;;;;;;;;;;;;;;;18.80;86.48;100959.72;5029375;28;20104;-70
2021/09/06 09:00:14;;;;;;;42.08;26.77;;;;;;;18.94;85.21;100955.88;5029723;28;19925;-70
2021/09/06 09:03:11;;;;;;;34.35;20.75;;;;;;;19.08;75.64;100945.75;5015621;28;20046;-73
2021/09/06 09:06:06;;;;;;;30.80;18.90;;;;;;;19.33;73.88;100962.63;5006809;28;20058;-73
2021/09/06 09:08:46;;;;;;;27.55;18.02;;;;;;;19.38;72.76;100953.13;5045272;28;20104;-71
2021/09/06 09:12:05;;;;;;;28.30;17.95;;;;;;;19.56;72.30;100957.06;5002983;28;20082;-72
2021/09/06 09:14:59;;;;;;;27.40;18.13;;;;;;;19.62;72.35;100965.50;5009295;28;20129;-70
2021/09/06 09:17:53;;;;;;;28.85;19.17;;;;;;;19.69;70.22;100955.00;5008292;28;20356;-73
2021/09/06 09:20:56;;;;;;;;;;;;;;;19.83;69.25;100964.63;5006893;28;20538;-72
2021/09/06 09:23:44;;;;;;;27.00;17.65;;;;;;;19.92;71.18;100966.53;5010945;28;20003;-71
2021/09/06 09:26:28;;;;;;;;;;;;;;;20.07;70.99;100964.34;5044077;28;20042;-70
2021/09/06 09:29:19;;;;;;;28.60;17.45;;;;;;;20.02;69.67;100947.66;5013416;28;19929;-70
2021/09/06 09:32:12;;;;;;;27.88;18.67;;;;;;;20.32;67.69;100969.44;5013852;28;20136;-71
2021/09/06 09:34:53;;;;;;;25.85;16.75;;;;;;;20.31;68.64;100962.28;5045962;28;20054;-71
2021/09/06 09:37:35;;;;;;;25.17;16.92;;;;;;;20.57;68.64;100967.19;5015919;28;20413;-70
2021/09/06 09:40:10;;;;;;;24.58;17.55;;;;;;;20.71;67.70;100965.94;5017777;28;20145;-70
2021/09/06 09:42:48;;;;;;;24.55;17.05;;;;;;;20.73;65.63;100964.81;5016685;28;20048;-71
2021/09/06 09:45:24;;;;;;;25.20;16.30;;;;;;;20.91;63.39;100969.56;5017702;28;20140;-69
2021/09/06 09:48:15;;;;;;;21.85;15.35;;;;;;;20.99;65.37;100956.16;5017249;28;20042;-70
2021/09/06 09:50:42;;;;;;;24.35;16.23;;;;;;;21.08;65.28;100964.44;5017935;28;20041;-71
2021/09/06 09:53:09;;;;;;;31.15;16.67;;;;;;;21.20;64.24;100957.88;5016701;28;20050;-72
2021/09/06 09:55:40;;;;;;;30.70;17.55;;;;;;;21.33;64.20;100959.41;5018152;28;20046;-70
2021/09/06 09:58:07;;;;;;;42.55;19.08;;;;;;;21.34;64.02;100948.41;5017686;28;20050;-71
2021/09/06 10:00:37;;;;;;;27.65;16.73;;;;;;;21.50;62.96;100955.09;5017102;28;20045;-71
2021/09/06 10:03:06;;;;;;;27.33;16.00;;;;;;;21.60;62.57;100955.94;5016660;28;20474;-75
2021/09/06 10:05:41;;;;;;;140.93;29.83;;;;;;;21.67;65.28;100950.75;5017984;28;20050;-70
2021/09/06 10:08:16;;;;;;;36.83;16.20;;;;;;;21.67;60.18;100956.19;5017438;28;20084;-71
2021/09/06 10:10:45;;;;;;;32.83;16.83;;;;;;;21.76;63.56;100946.34;5017734;28;20159;-73
2021/09/06 10:13:18;;;;;;;29.83;16.55;;;;;;;21.79;63.04;100949.59;5032864;28;20078;-73
2021/09/06 10:16:01;;;;;;;43.90;17.17;;;;;;;21.84;61.98;100950.03;5049232;28;20054;-72
2021/09/06 10:18:38;;;;;;;36.17;16.70;;;;;;;21.94;62.54;100951.84;5017321;28;20045;-72
2021/09/06 10:21:15;;;;;;;34.35;17.95;;;;;;;21.93;62.50;100948.28;5038388;28;20378;-73
2021/09/06 10:23:48;;;;;;;27.95;17.65;;;;;;;22.01;60.90;100938.53;5016910;28;20108;-73
2021/09/06 10:26:17;;;;;;;27.10;16.42;;;;;;;22.19;60.76;100936.72;5016485;28;20061;-71
2021/09/06 10:28:44;;;;;;;20.75;14.43;;;;;;;22.27;62.11;100937.84;5017163;28;20096;-71
2021/09/06 10:31:20;;;;;;;25.85;14.52;;;;;;;22.39;60.10;100945.63;5016926;28;20054;-73
2021/09/06 10:34:02;;;;;;;20.08;13.60;;;;;;;22.52;60.70;100944.44;5017081;28;20053;-74
2021/09/06 10:36:31;;;;;;;;;;;;;;;22.60;61.22;100955.41;5016785;28;20049;-76
2021/09/06 10:39:08;;;;;;;30.17;16.77;;;;;;;22.73;59.92;100959.59;5013518;28;19964;-74
2021/09/06 10:41:47;;;;;;;24.83;16.10;;;;;;;22.69;59.59;100950.03;5017319;28;20085;-77
2021/09/06 10:44:18;;;;;;;28.40;17.92;;;;;;;22.95;57.83;100949.28;5016107;28;20368;-74
2021/09/06 10:47:04;;;;;;;23.77;15.60;;;;;;;23.00;57.68;100942.38;5016090;28;20045;-74
2021/09/06 10:49:32;;;;;;;29.48;15.35;;;;;;;22.97;58.16;100948.09;5010125;28;20112;-71
2021/09/06 10:52:00;;;;;;;23.75;16.60;;;;;;;23.06;58.76;100943.59;5012340;28;20049;-73
2021/09/06 10:54:27;;;;;;;23.10;16.15;;;;;;;23.16;57.43;100949.78;5015085;28;20413;-73
2021/09/06 10:56:56;;;;;;;24.88;15.38;;;;;;;23.12;58.98;100940.25;5014528;28;20100;-71
2021/09/06 10:59:25;;;;;;;23.27;15.65;;;;;;;23.21;57.80;100941.19;5014424;28;20077;-72
2021/09/06 11:01:56;;;;;;;29.63;15.98;;;;;;;23.32;58.86;100946.38;5015475;28;20080;-71
2021/09/06 11:04:24;;;;;;;22.10;15.52;;;;;;;23.38;57.13;100936.75;5016663;28;20042;-71
2021/09/06 11:07:03;;;;;;;23.85;16.80;;;;;;;23.56;56.90;100931.25;5016537;28;20133;-71
2021/09/06 11:09:34;;;;;;;27.40;17.35;;;;;;;23.73;55.46;100936.78;5016442;28;20054;-73
2021/09/06 11:12:09;;;;;;;20.67;14.75;;;;;;;23.69;57.18;100916.31;5015508;28;20046;-71
2021/09/06 11:14:37;;;;;;;27.20;15.13;;;;;;;23.94;56.20;100941.84;5031610;28;20050;-73
2021/09/06 11:17:25;;;;;;;27.38;16.88;;;;;;;24.04;52.81;100935.38;5015083;28;20100;-72
2021/09/06 11:19:57;;;;;;;23.63;15.75;;;;;;;23.82;55.36;100919.47;5047936;28;20069;-73